sensor_id;sensor_type;location;lat;lon;timestamp;pressure;altitude;pressure_sealevel;temperature;humidity
78407;BME280;67692;51.074;-1.790;2023-07-31T00:02:12;100396.63;;;17.25;91.71
78407;BME280;67692;51.074;-1.790;2023-07-31T00:04:38;100387.78;;;17.26;91.54
78407;BME280;67692;51.074;-1.790;2023-07-31T00:07:05;100394.13;;;17.15;91.85
78407;BME280;67692;51.074;-1.790;2023-07-31T00:09:32;100376.94;;;17.13;91.83
78407;BME280;67692;51.074;-1.790;2023-07-31T00:11:59;100382.97;;;17.13;91.80
78407;BME280;67692;51.074;-1.790;2023-07-31T00:14:27;100391.72;;;17.22;91.99
78407;BME280;67692;51.074;-1.790;2023-07-31T00:16:53;100394.66;;;17.27;91.59
78407;BME280;67692;51.074;-1.790;2023-07-31T00:19:20;100386.00;;;17.27;91.71
78407;BME280;67692;51.074;-1.790;2023-07-31T00:21:46;100372.75;;;17.28;91.57
78407;BME280;67692;51.074;-1.790;2023-07-31T00:24:13;100387.97;;;17.24;91.59
78407;BME280;67692;51.074;-1.790;2023-07-31T00:26:40;100376.00;;;17.22;91.68
78407;BME280;67692;51.074;-1.790;2023-07-31T00:29:06;100373.34;;;17.14;92.06
78407;BME280;67692;51.074;-1.790;2023-07-31T00:31:34;100362.75;;;17.23;92.40
78407;BME280;67692;51.074;-1.790;2023-07-31T00:34:01;100362.13;;;17.30;91.57
78407;BME280;67692;51.074;-1.790;2023-07-31T00:36:27;100358.03;;;17.27;91.67
78407;BME280;67692;51.074;-1.790;2023-07-31T00:38:54;100358.34;;;17.24;92.32
78407;BME280;67692;51.074;-1.790;2023-07-31T00:41:21;100355.56;;;17.25;91.85
78407;BME280;67692;51.074;-1.790;2023-07-31T00:43:47;100348.88;;;17.31;91.72
78407;BME280;67692;51.074;-1.790;2023-07-31T00:46:14;100352.63;;;17.29;91.78
78407;BME280;67692;51.074;-1.790;2023-07-31T00:48:43;100349.69;;;17.23;92.27
78407;BME280;67692;51.074;-1.790;2023-07-31T00:51:10;100347.56;;;17.27;92.29
78407;BME280;67692;51.074;-1.790;2023-07-31T00:53:37;100344.94;;;17.27;92.11
78407;BME280;67692;51.074;-1.790;2023-07-31T00:56:04;100345.59;;;17.29;92.26
78407;BME280;67692;51.074;-1.790;2023-07-31T00:58:31;100337.09;;;17.35;92.12
78407;BME280;67692;51.074;-1.790;2023-07-31T01:00:57;100331.06;;;17.35;91.95
78407;BME280;67692;51.074;-1.790;2023-07-31T01:03:24;100336.44;;;17.33;92.19
78407;BME280;67692;51.074;-1.790;2023-07-31T01:05:59;100328.91;;;17.30;92.39
78407;BME280;67692;51.074;-1.790;2023-07-31T01:08:34;100321.50;;;17.17;92.60
78407;BME280;67692;51.074;-1.790;2023-07-31T01:11:09;100318.13;;;17.25;92.93
78407;BME280;67692;51.074;-1.790;2023-07-31T01:13:36;100308.91;;;17.21;93.58
78407;BME280;67692;51.074;-1.790;2023-07-31T01:16:03;100309.28;;;17.26;92.96
78407;BME280;67692;51.074;-1.790;2023-07-31T01:18:30;100297.34;;;17.23;93.36
78407;BME280;67692;51.074;-1.790;2023-07-31T01:21:06;100284.75;;;17.27;93.16
78407;BME280;67692;51.074;-1.790;2023-07-31T01:24:07;100290.47;;;17.22;93.40
78407;BME280;67692;51.074;-1.790;2023-07-31T01:26:38;100289.78;;;17.20;93.74
78407;BME280;67692;51.074;-1.790;2023-07-31T01:29:10;100283.13;;;17.26;93.42
78407;BME280;67692;51.074;-1.790;2023-07-31T01:31:39;100293.91;;;17.23;93.78
78407;BME280;67692;51.074;-1.790;2023-07-31T01:34:08;100280.00;;;17.22;93.69
78407;BME280;67692;51.074;-1.790;2023-07-31T01:36:36;100274.44;;;17.25;93.56
78407;BME280;67692;51.074;-1.790;2023-07-31T01:39:03;100281.66;;;17.32;93.49
78407;BME280;67692;51.074;-1.790;2023-07-31T01:41:30;100278.56;;;17.36;93.01
78407;BME280;67692;51.074;-1.790;2023-07-31T01:43:58;100272.34;;;17.37;93.12
78407;BME280;67692;51.074;-1.790;2023-07-31T01:46:24;100265.47;;;17.36;92.84
78407;BME280;67692;51.074;-1.790;2023-07-31T01:48:51;100271.34;;;17.30;93.37
78407;BME280;67692;51.074;-1.790;2023-07-31T01:51:17;100278.25;;;17.39;92.90
78407;BME280;67692;51.074;-1.790;2023-07-31T01:53:44;100257.31;;;17.39;93.08
78407;BME280;67692;51.074;-1.790;2023-07-31T01:56:11;100262.53;;;17.39;93.05
78407;BME280;67692;51.074;-1.790;2023-07-31T01:58:37;100253.50;;;17.34;93.66
78407;BME280;67692;51.074;-1.790;2023-07-31T02:01:05;100259.91;;;17.31;93.86
78407;BME280;67692;51.074;-1.790;2023-07-31T02:03:32;100245.50;;;17.35;94.00
78407;BME280;67692;51.074;-1.790;2023-07-31T02:05:59;100255.31;;;17.33;93.83
78407;BME280;67692;51.074;-1.790;2023-07-31T02:08:25;100255.16;;;17.35;93.93
78407;BME280;67692;51.074;-1.790;2023-07-31T02:10:52;100241.94;;;17.36;93.94
78407;BME280;67692;51.074;-1.790;2023-07-31T02:13:18;100245.53;;;17.43;93.53
78407;BME280;67692;51.074;-1.790;2023-07-31T02:15:45;100241.94;;;17.44;93.32
78407;BME280;67692;51.074;-1.790;2023-07-31T02:18:13;100232.44;;;17.43;93.45
78407;BME280;67692;51.074;-1.790;2023-07-31T02:20:40;100232.59;;;17.50;93.26
78407;BME280;67692;51.074;-1.790;2023-07-31T02:23:06;100230.66;;;17.52;92.97
78407;BME280;67692;51.074;-1.790;2023-07-31T02:25:33;100229.84;;;17.51;93.15
78407;BME280;67692;51.074;-1.790;2023-07-31T02:27:59;100232.13;;;17.54;92.91
78407;BME280;67692;51.074;-1.790;2023-07-31T02:30:26;100226.41;;;17.59;92.49
78407;BME280;67692;51.074;-1.790;2023-07-31T02:32:54;100216.59;;;17.61;92.20
78407;BME280;67692;51.074;-1.790;2023-07-31T02:35:22;100213.47;;;17.58;92.45
78407;BME280;67692;51.074;-1.790;2023-07-31T02:37:48;100219.53;;;17.58;92.60
78407;BME280;67692;51.074;-1.790;2023-07-31T02:40:15;100208.41;;;17.64;92.38
78407;BME280;67692;51.074;-1.790;2023-07-31T02:42:42;100205.28;;;17.61;92.63
78407;BME280;67692;51.074;-1.790;2023-07-31T02:45:08;100208.25;;;17.58;92.47
78407;BME280;67692;51.074;-1.790;2023-07-31T02:47:35;100208.25;;;17.66;92.44
78407;BME280;67692;51.074;-1.790;2023-07-31T02:50:02;100206.28;;;17.68;92.18
78407;BME280;67692;51.074;-1.790;2023-07-31T02:52:30;100200.91;;;17.69;91.90
78407;BME280;67692;51.074;-1.790;2023-07-31T02:54:57;100195.16;;;17.66;91.93
78407;BME280;67692;51.074;-1.790;2023-07-31T02:57:23;100198.75;;;17.65;91.99
78407;BME280;67692;51.074;-1.790;2023-07-31T02:59:50;100181.91;;;17.67;92.46
78407;BME280;67692;51.074;-1.790;2023-07-31T03:02:17;100177.47;;;17.68;92.04
78407;BME280;67692;51.074;-1.790;2023-07-31T03:04:43;100183.72;;;17.67;92.17
78407;BME280;67692;51.074;-1.790;2023-07-31T03:07:10;100179.63;;;17.72;91.80
78407;BME280;67692;51.074;-1.790;2023-07-31T03:09:38;100182.06;;;17.66;92.32
78407;BME280;67692;51.074;-1.790;2023-07-31T03:12:05;100189.94;;;17.66;92.12
78407;BME280;67692;51.074;-1.790;2023-07-31T03:14:31;100186.31;;;17.67;91.92
78407;BME280;67692;51.074;-1.790;2023-07-31T03:16:59;100186.63;;;17.64;91.90
78407;BME280;67692;51.074;-1.790;2023-07-31T03:19:25;100185.66;;;17.65;92.16
78407;BME280;67692;51.074;-1.790;2023-07-31T03:21:52;100188.13;;;17.66;92.08
78407;BME280;67692;51.074;-1.790;2023-07-31T03:24:19;100183.41;;;17.70;91.86
78407;BME280;67692;51.074;-1.790;2023-07-31T03:26:47;100192.91;;;17.71;91.86
78407;BME280;67692;51.074;-1.790;2023-07-31T03:29:13;100181.44;;;17.80;91.70
78407;BME280;67692;51.074;-1.790;2023-07-31T03:31:40;100181.59;;;17.78;91.63
78407;BME280;67692;51.074;-1.790;2023-07-31T03:34:06;100179.31;;;17.83;91.68
78407;BME280;67692;51.074;-1.790;2023-07-31T03:36:33;100180.59;;;17.88;91.45
78407;BME280;67692;51.074;-1.790;2023-07-31T03:39:00;100170.78;;;17.90;91.39
78407;BME280;67692;51.074;-1.790;2023-07-31T03:41:26;100167.00;;;17.92;91.38
78407;BME280;67692;51.074;-1.790;2023-07-31T03:43:54;100166.69;;;17.95;91.07
78407;BME280;67692;51.074;-1.790;2023-07-31T03:46:21;100164.38;;;17.92;91.17
78407;BME280;67692;51.074;-1.790;2023-07-31T03:48:48;100167.00;;;17.92;91.09
78407;BME280;67692;51.074;-1.790;2023-07-31T03:51:15;100165.22;;;17.76;91.77
78407;BME280;67692;51.074;-1.790;2023-07-31T03:53:42;100166.03;;;17.77;91.79
78407;BME280;67692;51.074;-1.790;2023-07-31T03:56:08;100165.88;;;17.78;91.88
78407;BME280;67692;51.074;-1.790;2023-07-31T03:58:35;100161.63;;;17.77;91.67
78407;BME280;67692;51.074;-1.790;2023-07-31T04:01:03;100169.97;;;17.73;91.99
78407;BME280;67692;51.074;-1.790;2023-07-31T04:03:30;100166.84;;;17.77;91.97
78407;BME280;67692;51.074;-1.790;2023-07-31T04:05:57;100167.38;;;17.81;91.67
78407;BME280;67692;51.074;-1.790;2023-07-31T04:08:24;100159.34;;;17.82;91.39
78407;BME280;67692;51.074;-1.790;2023-07-31T04:10:50;100153.94;;;17.84;91.55
78407;BME280;67692;51.074;-1.790;2023-07-31T04:13:17;100152.28;;;17.83;91.57
78407;BME280;67692;51.074;-1.790;2023-07-31T04:15:48;100160.31;;;17.81;91.83
78407;BME280;67692;51.074;-1.790;2023-07-31T04:18:16;100158.84;;;17.87;91.34
78407;BME280;67692;51.074;-1.790;2023-07-31T04:20:42;100152.78;;;17.87;91.34
78407;BME280;67692;51.074;-1.790;2023-07-31T04:23:09;100155.56;;;17.85;91.46
78407;BME280;67692;51.074;-1.790;2023-07-31T04:25:35;100150.00;;;17.88;91.38
78407;BME280;67692;51.074;-1.790;2023-07-31T04:28:02;100163.72;;;17.90;91.37
78407;BME280;67692;51.074;-1.790;2023-07-31T04:30:29;100160.78;;;17.93;91.09
78407;BME280;67692;51.074;-1.790;2023-07-31T04:32:55;100169.13;;;17.89;91.03
78407;BME280;67692;51.074;-1.790;2023-07-31T04:35:23;100158.19;;;17.85;91.21
78407;BME280;67692;51.074;-1.790;2023-07-31T04:37:50;100155.91;;;17.82;91.61
78407;BME280;67692;51.074;-1.790;2023-07-31T04:40:17;100163.41;;;17.85;91.36
78407;BME280;67692;51.074;-1.790;2023-07-31T04:42:43;100158.19;;;17.85;91.28
78407;BME280;67692;51.074;-1.790;2023-07-31T04:45:10;100159.81;;;17.86;91.10
78407;BME280;67692;51.074;-1.790;2023-07-31T04:47:36;100155.09;;;17.81;91.32
78407;BME280;67692;51.074;-1.790;2023-07-31T04:50:04;100158.53;;;17.82;91.09
78407;BME280;67692;51.074;-1.790;2023-07-31T04:52:32;100144.91;;;17.87;91.21
78407;BME280;67692;51.074;-1.790;2023-07-31T04:54:58;100144.25;;;17.93;90.73
78407;BME280;67692;51.074;-1.790;2023-07-31T04:57:25;100143.94;;;17.96;90.76
78407;BME280;67692;51.074;-1.790;2023-07-31T04:59:52;100151.44;;;17.99;90.35
78407;BME280;67692;51.074;-1.790;2023-07-31T05:02:18;100150.97;;;17.87;90.77
78407;BME280;67692;51.074;-1.790;2023-07-31T05:04:45;100146.56;;;17.88;90.88
78407;BME280;67692;51.074;-1.790;2023-07-31T05:07:11;100151.97;;;17.94;90.82
78407;BME280;67692;51.074;-1.790;2023-07-31T05:09:39;100142.59;;;18.00;90.78
78407;BME280;67692;51.074;-1.790;2023-07-31T05:12:07;100144.41;;;17.91;90.89
78407;BME280;67692;51.074;-1.790;2023-07-31T05:14:34;100132.00;;;17.85;91.01
78407;BME280;67692;51.074;-1.790;2023-07-31T05:17:00;100139.81;;;17.93;90.92
78407;BME280;67692;51.074;-1.790;2023-07-31T05:19:27;100134.91;;;17.98;90.75
78407;BME280;67692;51.074;-1.790;2023-07-31T05:21:53;100134.75;;;18.00;91.10
78407;BME280;67692;51.074;-1.790;2023-07-31T05:24:20;100135.91;;;17.97;91.19
78407;BME280;67692;51.074;-1.790;2023-07-31T05:26:48;100133.13;;;17.99;91.06
78407;BME280;67692;51.074;-1.790;2023-07-31T05:29:15;100127.69;;;17.92;91.23
78407;BME280;67692;51.074;-1.790;2023-07-31T05:31:41;100124.91;;;18.02;91.11
78407;BME280;67692;51.074;-1.790;2023-07-31T05:34:08;100113.47;;;17.95;90.84
78407;BME280;67692;51.074;-1.790;2023-07-31T05:36:35;100129.03;;;17.96;91.34
78407;BME280;67692;51.074;-1.790;2023-07-31T05:39:01;100131.47;;;17.98;91.49
78407;BME280;67692;51.074;-1.790;2023-07-31T05:41:31;100131.31;;;17.99;91.43
78407;BME280;67692;51.074;-1.790;2023-07-31T05:43:59;100134.41;;;18.03;91.48
78407;BME280;67692;51.074;-1.790;2023-07-31T05:46:25;100121.13;;;18.04;91.20
78407;BME280;67692;51.074;-1.790;2023-07-31T05:48:52;100131.94;;;18.01;91.37
78407;BME280;67692;51.074;-1.790;2023-07-31T05:51:19;100140.81;;;18.00;91.18
78407;BME280;67692;51.074;-1.790;2023-07-31T05:53:45;100129.97;;;18.03;90.98
78407;BME280;67692;51.074;-1.790;2023-07-31T05:56:12;100119.97;;;18.07;90.83
78407;BME280;67692;51.074;-1.790;2023-07-31T05:58:38;100115.53;;;18.07;91.00
78407;BME280;67692;51.074;-1.790;2023-07-31T06:01:06;100112.94;;;18.07;91.13
78407;BME280;67692;51.074;-1.790;2023-07-31T06:03:33;100109.00;;;18.11;90.71
78407;BME280;67692;51.074;-1.790;2023-07-31T06:06:00;100124.91;;;18.10;91.06
78407;BME280;67692;51.074;-1.790;2023-07-31T06:08:26;100126.03;;;18.16;91.05
78407;BME280;67692;51.074;-1.790;2023-07-31T06:10:53;100125.38;;;18.13;91.18
78407;BME280;67692;51.074;-1.790;2023-07-31T06:13:19;100116.06;;;18.11;91.38
78407;BME280;67692;51.074;-1.790;2023-07-31T06:15:46;100110.13;;;18.17;91.05
78407;BME280;67692;51.074;-1.790;2023-07-31T06:18:14;100110.59;;;18.21;91.04
78407;BME280;67692;51.074;-1.790;2023-07-31T06:20:41;100111.09;;;18.24;90.72
78407;BME280;67692;51.074;-1.790;2023-07-31T06:23:07;100101.59;;;18.23;90.62
78407;BME280;67692;51.074;-1.790;2023-07-31T06:25:34;100102.41;;;18.24;90.33
78407;BME280;67692;51.074;-1.790;2023-07-31T06:28:01;100114.19;;;18.28;90.44
78407;BME280;67692;51.074;-1.790;2023-07-31T06:30:27;100098.97;;;18.23;90.65
78407;BME280;67692;51.074;-1.790;2023-07-31T06:32:54;100107.97;;;18.21;91.06
78407;BME280;67692;51.074;-1.790;2023-07-31T06:35:22;100100.63;;;18.24;91.13
78407;BME280;67692;51.074;-1.790;2023-07-31T06:37:48;100108.44;;;18.32;90.46
78407;BME280;67692;51.074;-1.790;2023-07-31T06:40:16;100111.22;;;18.31;90.69
78407;BME280;67692;51.074;-1.790;2023-07-31T06:42:43;100109.72;;;18.36;90.23
78407;BME280;67692;51.074;-1.790;2023-07-31T06:45:10;100109.56;;;18.38;90.22
78407;BME280;67692;51.074;-1.790;2023-07-31T06:47:36;100092.97;;;18.46;89.96
78407;BME280;67692;51.074;-1.790;2023-07-31T06:50:04;100090.78;;;18.57;89.98
78407;BME280;67692;51.074;-1.790;2023-07-31T06:52:32;100088.63;;;18.69;89.53
78407;BME280;67692;51.074;-1.790;2023-07-31T06:55:02;100086.66;;;18.71;89.58
78407;BME280;67692;51.074;-1.790;2023-07-31T06:57:30;100083.22;;;18.70;89.14
78407;BME280;67692;51.074;-1.790;2023-07-31T06:59:56;100087.31;;;18.65;89.04
78407;BME280;67692;51.074;-1.790;2023-07-31T07:02:23;100085.47;;;18.73;88.99
78407;BME280;67692;51.074;-1.790;2023-07-31T07:04:50;100087.28;;;18.73;88.86
78407;BME280;67692;51.074;-1.790;2023-07-31T07:07:17;100076.16;;;18.71;89.54
78407;BME280;67692;51.074;-1.790;2023-07-31T07:09:45;100069.56;;;18.75;89.04
78407;BME280;67692;51.074;-1.790;2023-07-31T07:12:12;100066.72;;;18.85;88.68
78407;BME280;67692;51.074;-1.790;2023-07-31T07:14:39;100066.25;;;18.81;88.68
78407;BME280;67692;51.074;-1.790;2023-07-31T07:17:05;100069.63;;;18.90;89.07
78407;BME280;67692;51.074;-1.790;2023-07-31T07:19:32;100073.84;;;18.99;88.54
78407;BME280;67692;51.074;-1.790;2023-07-31T07:21:59;100062.97;;;19.02;88.07
78407;BME280;67692;51.074;-1.790;2023-07-31T07:24:27;100062.56;;;19.13;88.08
78407;BME280;67692;51.074;-1.790;2023-07-31T07:26:55;100050.09;;;19.15;87.40
78407;BME280;67692;51.074;-1.790;2023-07-31T07:29:22;100051.53;;;19.18;87.86
78407;BME280;67692;51.074;-1.790;2023-07-31T07:31:48;100050.19;;;19.22;87.67
78407;BME280;67692;51.074;-1.790;2023-07-31T07:34:15;100062.50;;;19.21;87.33
78407;BME280;67692;51.074;-1.790;2023-07-31T07:36:41;100054.97;;;19.18;86.68
78407;BME280;67692;51.074;-1.790;2023-07-31T07:39:09;100053.34;;;19.17;86.38
78407;BME280;67692;51.074;-1.790;2023-07-31T07:41:36;100049.16;;;19.08;86.76
78407;BME280;67692;51.074;-1.790;2023-07-31T07:44:04;100051.72;;;19.16;86.59
78407;BME280;67692;51.074;-1.790;2023-07-31T07:46:31;100048.38;;;19.22;86.84
78407;BME280;67692;51.074;-1.790;2023-07-31T07:48:57;100044.66;;;19.17;85.36
78407;BME280;67692;51.074;-1.790;2023-07-31T07:51:24;100053.97;;;19.19;85.79
78407;BME280;67692;51.074;-1.790;2023-07-31T07:53:51;100050.53;;;19.19;86.36
78407;BME280;67692;51.074;-1.790;2023-07-31T07:56:17;100047.09;;;19.18;86.35
78407;BME280;67692;51.074;-1.790;2023-07-31T07:58:44;100034.56;;;19.28;85.71
78407;BME280;67692;51.074;-1.790;2023-07-31T08:01:12;100043.69;;;19.32;84.83
78407;BME280;67692;51.074;-1.790;2023-07-31T08:03:38;100041.72;;;19.35;85.50
78407;BME280;67692;51.074;-1.790;2023-07-31T08:06:05;100044.28;;;19.43;84.59
78407;BME280;67692;51.074;-1.790;2023-07-31T08:08:34;100041.09;;;19.47;84.45
78407;BME280;67692;51.074;-1.790;2023-07-31T08:11:01;100030.03;;;19.52;83.57
78407;BME280;67692;51.074;-1.790;2023-07-31T08:13:28;100023.81;;;19.53;83.93
78407;BME280;67692;51.074;-1.790;2023-07-31T08:15:54;100028.38;;;19.59;83.21
78407;BME280;67692;51.074;-1.790;2023-07-31T08:18:23;100036.28;;;19.51;82.14
78407;BME280;67692;51.074;-1.790;2023-07-31T08:20:49;100026.59;;;19.51;82.23
78407;BME280;67692;51.074;-1.790;2023-07-31T08:23:16;100022.16;;;19.52;80.31
78407;BME280;67692;51.074;-1.790;2023-07-31T08:25:42;100038.69;;;19.60;80.12
78407;BME280;67692;51.074;-1.790;2023-07-31T08:28:09;100045.03;;;19.66;79.18
78407;BME280;67692;51.074;-1.790;2023-07-31T08:30:35;100050.75;;;19.55;78.80
78407;BME280;67692;51.074;-1.790;2023-07-31T08:33:02;100057.66;;;19.48;76.53
78407;BME280;67692;51.074;-1.790;2023-07-31T08:35:30;100030.03;;;19.52;77.33
78407;BME280;67692;51.074;-1.790;2023-07-31T08:37:57;100040.69;;;19.58;77.64
78407;BME280;67692;51.074;-1.790;2023-07-31T08:40:24;100045.31;;;19.56;76.90
78407;BME280;67692;51.074;-1.790;2023-07-31T08:42:55;100032.66;;;19.52;75.78
78407;BME280;67692;51.074;-1.790;2023-07-31T08:45:27;100034.84;;;19.48;75.80
78407;BME280;67692;51.074;-1.790;2023-07-31T08:47:55;100032.41;;;19.47;75.31
78407;BME280;67692;51.074;-1.790;2023-07-31T08:50:22;100042.34;;;19.37;75.04
78407;BME280;67692;51.074;-1.790;2023-07-31T08:52:51;100051.56;;;19.32;74.32
78407;BME280;67692;51.074;-1.790;2023-07-31T08:55:19;100066.63;;;19.39;72.75
78407;BME280;67692;51.074;-1.790;2023-07-31T08:57:50;100071.22;;;19.37;72.69
78407;BME280;67692;51.074;-1.790;2023-07-31T09:00:18;100067.16;;;19.34;71.43
78407;BME280;67692;51.074;-1.790;2023-07-31T09:02:46;100058.41;;;19.42;71.30
78407;BME280;67692;51.074;-1.790;2023-07-31T09:05:15;100044.72;;;19.46;69.70
78407;BME280;67692;51.074;-1.790;2023-07-31T09:07:43;100033.66;;;19.51;72.13
78407;BME280;67692;51.074;-1.790;2023-07-31T09:10:13;100050.47;;;19.65;71.98
78407;BME280;67692;51.074;-1.790;2023-07-31T09:12:40;100062.41;;;19.67;72.05
78407;BME280;67692;51.074;-1.790;2023-07-31T09:15:07;100049.22;;;19.75;71.99
78407;BME280;67692;51.074;-1.790;2023-07-31T09:17:35;100035.06;;;19.76;70.31
78407;BME280;67692;51.074;-1.790;2023-07-31T09:20:16;100028.47;;;19.80;70.78
78407;BME280;67692;51.074;-1.790;2023-07-31T09:22:43;100038.97;;;19.80;71.74
78407;BME280;67692;51.074;-1.790;2023-07-31T09:25:19;100029.25;;;19.96;71.91
78407;BME280;67692;51.074;-1.790;2023-07-31T09:27:48;100012.06;;;19.93;70.38
78407;BME280;67692;51.074;-1.790;2023-07-31T09:30:15;100015.78;;;19.99;70.80
78407;BME280;67692;51.074;-1.790;2023-07-31T09:32:42;100020.28;;;20.05;71.29
78407;BME280;67692;51.074;-1.790;2023-07-31T09:35:28;100012.06;;;19.93;71.32
78407;BME280;67692;51.074;-1.790;2023-07-31T09:37:57;100027.94;;;19.85;70.63
78407;BME280;67692;51.074;-1.790;2023-07-31T09:40:27;100018.69;;;19.89;71.51
78407;BME280;67692;51.074;-1.790;2023-07-31T09:42:55;100025.38;;;19.91;70.15
78407;BME280;67692;51.074;-1.790;2023-07-31T09:45:23;100025.28;;;20.00;72.03
78407;BME280;67692;51.074;-1.790;2023-07-31T09:47:50;100015.03;;;20.05;71.57
78407;BME280;67692;51.074;-1.790;2023-07-31T09:50:16;100033.88;;;20.08;72.23
78407;BME280;67692;51.074;-1.790;2023-07-31T09:52:43;100049.75;;;20.15;72.22
78407;BME280;67692;51.074;-1.790;2023-07-31T09:55:10;100055.81;;;20.15;71.80
78407;BME280;67692;51.074;-1.790;2023-07-31T09:57:40;100040.44;;;19.98;71.51
78407;BME280;67692;51.074;-1.790;2023-07-31T10:00:08;100045.50;;;19.84;72.12
78407;BME280;67692;51.074;-1.790;2023-07-31T10:02:36;100051.41;;;19.86;71.35
78407;BME280;67692;51.074;-1.790;2023-07-31T10:05:04;100055.28;;;19.76;71.60
78407;BME280;67692;51.074;-1.790;2023-07-31T10:07:34;100051.09;;;19.67;71.53
78407;BME280;67692;51.074;-1.790;2023-07-31T10:10:04;100022.13;;;19.60;72.51
78407;BME280;67692;51.074;-1.790;2023-07-31T10:12:32;100032.09;;;19.65;72.74
78407;BME280;67692;51.074;-1.790;2023-07-31T10:15:01;100025.19;;;19.78;73.19
78407;BME280;67692;51.074;-1.790;2023-07-31T10:17:29;100031.44;;;19.77;72.46
78407;BME280;67692;51.074;-1.790;2023-07-31T10:19:57;100024.13;;;19.73;72.53
78407;BME280;67692;51.074;-1.790;2023-07-31T10:22:24;100042.50;;;19.73;72.65
78407;BME280;67692;51.074;-1.790;2023-07-31T10:24:52;100054.00;;;19.57;73.16
78407;BME280;67692;51.074;-1.790;2023-07-31T10:27:20;100082.72;;;19.58;73.08
78407;BME280;67692;51.074;-1.790;2023-07-31T10:29:47;100086.63;;;19.63;73.46
78407;BME280;67692;51.074;-1.790;2023-07-31T10:32:16;100097.66;;;19.58;73.21
78407;BME280;67692;51.074;-1.790;2023-07-31T10:34:43;100094.22;;;19.57;73.31
78407;BME280;67692;51.074;-1.790;2023-07-31T10:37:21;100088.25;;;19.64;73.76
78407;BME280;67692;51.074;-1.790;2023-07-31T10:39:59;100084.28;;;19.45;73.06
78407;BME280;67692;51.074;-1.790;2023-07-31T10:42:33;100078.09;;;19.60;72.84
78407;BME280;67692;51.074;-1.790;2023-07-31T10:45:02;100090.16;;;19.70;72.60
78407;BME280;67692;51.074;-1.790;2023-07-31T10:47:31;100085.56;;;19.72;72.59
78407;BME280;67692;51.074;-1.790;2023-07-31T10:50:14;100075.28;;;19.62;70.95
78407;BME280;67692;51.074;-1.790;2023-07-31T10:52:45;100054.66;;;19.74;72.92
78407;BME280;67692;51.074;-1.790;2023-07-31T10:55:23;100047.94;;;19.71;71.66
78407;BME280;67692;51.074;-1.790;2023-07-31T10:57:50;100060.34;;;19.77;70.67
78407;BME280;67692;51.074;-1.790;2023-07-31T11:00:22;100072.13;;;19.81;69.81
78407;BME280;67692;51.074;-1.790;2023-07-31T11:03:04;100066.53;;;19.70;70.24
78407;BME280;67692;51.074;-1.790;2023-07-31T11:05:46;100071.31;;;19.66;70.32
78407;BME280;67692;51.074;-1.790;2023-07-31T11:08:15;100077.56;;;19.65;69.42
78407;BME280;67692;51.074;-1.790;2023-07-31T11:10:42;100076.09;;;19.63;69.35
78407;BME280;67692;51.074;-1.790;2023-07-31T11:13:09;100090.97;;;19.70;70.08
78407;BME280;67692;51.074;-1.790;2023-07-31T11:15:35;100092.44;;;19.73;69.83
78407;BME280;67692;51.074;-1.790;2023-07-31T11:18:04;100077.13;;;19.76;69.79
78407;BME280;67692;51.074;-1.790;2023-07-31T11:20:33;100063.34;;;19.74;69.62
78407;BME280;67692;51.074;-1.790;2023-07-31T11:23:01;100058.47;;;19.71;70.67
78407;BME280;67692;51.074;-1.790;2023-07-31T11:25:29;100053.66;;;19.75;71.37
78407;BME280;67692;51.074;-1.790;2023-07-31T11:27:57;100057.09;;;19.75;70.04
78407;BME280;67692;51.074;-1.790;2023-07-31T11:30:24;100050.03;;;19.76;70.52
78407;BME280;67692;51.074;-1.790;2023-07-31T11:32:50;100051.22;;;19.73;69.78
78407;BME280;67692;51.074;-1.790;2023-07-31T11:35:18;100062.78;;;19.64;69.78
78407;BME280;67692;51.074;-1.790;2023-07-31T11:37:45;100047.16;;;19.48;70.06
78407;BME280;67692;51.074;-1.790;2023-07-31T11:40:12;100050.56;;;19.33;70.78
78407;BME280;67692;51.074;-1.790;2023-07-31T11:42:39;100051.41;;;19.49;72.09
78407;BME280;67692;51.074;-1.790;2023-07-31T11:45:07;100039.84;;;19.43;73.12
78407;BME280;67692;51.074;-1.790;2023-07-31T11:47:34;100044.22;;;19.13;73.36
78407;BME280;67692;51.074;-1.790;2023-07-31T11:50:02;100037.47;;;18.96;73.87
78407;BME280;67692;51.074;-1.790;2023-07-31T11:52:33;100023.75;;;18.86;73.24
78407;BME280;67692;51.074;-1.790;2023-07-31T11:55:00;100018.16;;;18.89;73.75
78407;BME280;67692;51.074;-1.790;2023-07-31T11:57:27;100026.03;;;18.89;74.30
78407;BME280;67692;51.074;-1.790;2023-07-31T11:59:55;100028.28;;;18.92;73.90
78407;BME280;67692;51.074;-1.790;2023-07-31T12:02:22;100032.25;;;18.88;74.03
78407;BME280;67692;51.074;-1.790;2023-07-31T12:04:49;100025.75;;;18.84;75.31
78407;BME280;67692;51.074;-1.790;2023-07-31T12:07:16;100016.09;;;18.76;76.29
78407;BME280;67692;51.074;-1.790;2023-07-31T12:09:52;100005.44;;;18.78;75.50
78407;BME280;67692;51.074;-1.790;2023-07-31T12:12:23;99981.00;;;18.77;75.64
78407;BME280;67692;51.074;-1.790;2023-07-31T12:14:50;99982.13;;;18.83;76.12
78407;BME280;67692;51.074;-1.790;2023-07-31T12:17:19;99984.22;;;18.87;76.08
78407;BME280;67692;51.074;-1.790;2023-07-31T12:19:46;99989.09;;;18.90;77.72
78407;BME280;67692;51.074;-1.790;2023-07-31T12:22:15;99989.75;;;18.92;78.61
78407;BME280;67692;51.074;-1.790;2023-07-31T12:24:43;99990.88;;;18.98;78.28
78407;BME280;67692;51.074;-1.790;2023-07-31T12:27:13;99991.50;;;19.00;78.68
78407;BME280;67692;51.074;-1.790;2023-07-31T12:29:41;99992.75;;;19.04;77.21
78407;BME280;67692;51.074;-1.790;2023-07-31T12:32:21;100005.72;;;19.06;78.41
78407;BME280;67692;51.074;-1.790;2023-07-31T12:34:49;99999.66;;;19.05;75.91
78407;BME280;67692;51.074;-1.790;2023-07-31T12:37:15;99998.00;;;19.04;76.39
78407;BME280;67692;51.074;-1.790;2023-07-31T12:39:43;99994.47;;;18.97;76.62
78407;BME280;67692;51.074;-1.790;2023-07-31T12:42:09;99990.88;;;18.98;76.18
78407;BME280;67692;51.074;-1.790;2023-07-31T12:44:37;99989.56;;;18.94;75.77